createdAt,value
2018-11-02T00:01:31.752Z,7.77
2018-11-02T00:04:04.288Z,9.60
2018-11-02T00:06:36.760Z,8.50
2018-11-02T00:09:09.104Z,9.77
2018-11-02T00:11:41.556Z,11.40
2018-11-02T00:14:13.917Z,11.77
2018-11-02T00:16:46.225Z,9.37
2018-11-02T00:19:36.659Z,8.40
2018-11-02T00:22:09.213Z,9.23
2018-11-02T00:24:41.590Z,9.03
2018-11-02T00:27:14.075Z,7.30
2018-11-02T00:29:46.612Z,9.43
2018-11-02T00:32:19.173Z,9.63
2018-11-02T00:34:51.530Z,10.37
2018-11-02T00:37:23.864Z,9.27
2018-11-02T00:39:56.478Z,10.33
2018-11-02T00:42:28.900Z,9.67
2018-11-02T00:45:01.272Z,7.63
2018-11-02T00:47:33.805Z,10.20
2018-11-02T00:50:08.446Z,7.90
2018-11-02T00:52:40.977Z,9.17
2018-11-02T00:55:13.383Z,10.27
2018-11-02T00:57:45.730Z,9.47
2018-11-02T01:00:18.246Z,8.53
2018-11-02T01:02:50.575Z,9.00
2018-11-02T01:05:23.051Z,9.10
2018-11-02T01:07:55.415Z,8.33
2018-11-02T01:10:27.922Z,8.97
2018-11-02T01:13:00.266Z,8.40
2018-11-02T01:15:32.528Z,8.87
2018-11-02T01:18:05.443Z,9.47
2018-11-02T01:20:37.850Z,7.40
2018-11-02T01:23:10.278Z,9.00
2018-11-02T01:25:43.354Z,6.70
2018-11-02T01:28:15.725Z,7.53
2018-11-02T01:30:48.111Z,7.67
2018-11-02T01:33:38.495Z,9.30
2018-11-02T01:36:10.803Z,9.13
2018-11-02T01:38:43.196Z,9.33
2018-11-02T01:41:15.418Z,9.97
2018-11-02T01:43:47.717Z,9.30
2018-11-02T01:46:20.057Z,9.73
2018-11-02T01:48:52.379Z,12.27
2018-11-02T01:51:24.798Z,11.10
2018-11-02T01:53:57.253Z,9.60
2018-11-02T01:56:29.555Z,11.47
2018-11-02T01:59:02.082Z,8.67
2018-11-02T02:01:34.445Z,10.33
2018-11-02T02:04:06.790Z,8.63
2018-11-02T02:06:39.212Z,10.30
2018-11-02T02:09:12.412Z,10.03
2018-11-02T02:11:44.906Z,11.07
2018-11-02T02:14:17.438Z,9.40
2018-11-02T02:16:49.865Z,9.83
2018-11-02T02:19:22.639Z,9.00
2018-11-02T02:21:55.058Z,8.27
2018-11-02T02:24:27.422Z,8.93
2018-11-02T02:26:59.830Z,8.70
2018-11-02T02:29:32.118Z,7.43
2018-11-02T02:32:04.657Z,7.43
2018-11-02T02:34:37.010Z,6.63
2018-11-02T02:37:09.418Z,8.47
2018-11-02T02:39:41.741Z,7.53
2018-11-02T02:42:14.207Z,6.30
2018-11-02T02:44:46.513Z,8.43
2018-11-02T02:47:18.846Z,9.23
2018-11-02T02:49:51.374Z,10.57
2018-11-02T02:52:23.845Z,9.47
2018-11-02T02:54:56.388Z,8.27
2018-11-02T02:57:28.686Z,8.93
2018-11-02T03:00:01.113Z,8.10
2018-11-02T03:02:33.375Z,7.97
2018-11-02T03:05:05.998Z,6.53
2018-11-02T03:07:38.862Z,6.67
2018-11-02T03:10:11.476Z,6.87
2018-11-02T03:12:43.811Z,7.57
2018-11-02T03:15:16.342Z,5.90
2018-11-02T03:17:48.826Z,6.57
2018-11-02T03:20:21.178Z,6.17
2018-11-02T03:22:53.453Z,7.20
2018-11-02T03:25:25.744Z,6.27
2018-11-02T03:27:58.179Z,6.80
2018-11-02T03:30:30.507Z,6.83
2018-11-02T03:33:02.817Z,6.00
2018-11-02T03:35:35.226Z,6.70
2018-11-02T03:38:07.595Z,6.97
2018-11-02T03:40:40.002Z,6.43
2018-11-02T03:43:12.554Z,7.13
2018-11-02T03:45:44.957Z,7.30
2018-11-02T03:48:17.359Z,7.20
2018-11-02T03:50:49.825Z,5.97
2018-11-02T03:53:22.267Z,6.70
2018-11-02T03:55:54.610Z,6.80
2018-11-02T03:58:26.918Z,6.73
2018-11-02T04:00:59.487Z,6.07
2018-11-02T04:03:31.812Z,5.90
2018-11-02T04:06:05.054Z,6.80
2018-11-02T04:08:37.493Z,6.30
2018-11-02T04:11:09.925Z,6.70
2018-11-02T04:13:42.427Z,6.90
2018-11-02T04:16:14.782Z,6.70
2018-11-02T04:18:47.192Z,7.20
2018-11-02T04:21:19.584Z,6.50
2018-11-02T04:23:51.863Z,6.47
2018-11-02T04:26:24.142Z,6.80
2018-11-02T04:28:56.431Z,6.67
2018-11-02T04:31:28.826Z,6.23
2018-11-02T04:34:01.239Z,4.63
2018-11-02T04:36:33.645Z,5.00
2018-11-02T04:39:08.249Z,4.97
2018-11-02T04:41:40.615Z,5.77
2018-11-02T04:44:13.071Z,6.90
2018-11-02T04:46:45.373Z,6.53
2018-11-02T04:49:17.873Z,4.90
2018-11-02T04:51:50.416Z,4.13
2018-11-02T04:54:22.844Z,3.90
2018-11-02T04:56:55.313Z,5.70
2018-11-02T04:59:27.707Z,5.73
2018-11-02T05:02:00.161Z,4.60
2018-11-02T05:04:32.531Z,5.50
2018-11-02T05:07:05.138Z,5.27
2018-11-02T05:09:37.478Z,4.60
2018-11-02T05:12:09.721Z,5.37
2018-11-02T05:14:42.133Z,3.73
2018-11-02T05:17:14.798Z,4.13
2018-11-02T05:19:47.166Z,4.00
2018-11-02T05:22:19.584Z,5.93
2018-11-02T05:24:51.882Z,5.63
2018-11-02T05:27:24.219Z,5.00
2018-11-02T05:29:56.526Z,4.83
2018-11-02T05:32:28.874Z,4.77
2018-11-02T05:35:01.153Z,4.70
2018-11-02T05:37:33.457Z,5.37
2018-11-02T05:40:06.545Z,4.93
2018-11-02T05:42:38.872Z,4.53
2018-11-02T05:45:11.217Z,4.97
2018-11-02T05:47:43.574Z,4.20
2018-11-02T05:50:16.033Z,4.00
2018-11-02T05:52:48.494Z,4.03
2018-11-02T05:55:21.018Z,4.87
2018-11-02T05:57:53.476Z,4.80
2018-11-02T06:00:25.758Z,5.33
2018-11-02T06:02:58.075Z,4.43
2018-11-02T06:05:30.705Z,4.53
2018-11-02T06:08:03.176Z,4.33
2018-11-02T06:10:35.536Z,5.03
2018-11-02T06:13:08.117Z,4.43
2018-11-02T06:15:40.461Z,5.40
2018-11-02T06:18:12.738Z,4.60
2018-11-02T06:20:45.026Z,3.80
2018-11-02T06:23:17.653Z,4.53
2018-11-02T06:25:49.945Z,3.53
2018-11-02T06:28:22.486Z,3.90
2018-11-02T06:30:54.873Z,3.37
2018-11-02T06:33:27.369Z,3.70
2018-11-02T06:35:59.874Z,4.03
2018-11-02T06:38:32.200Z,3.30
2018-11-02T06:41:04.923Z,4.13
2018-11-02T06:43:37.354Z,5.43
2018-11-02T06:46:09.766Z,4.20
2018-11-02T06:48:42.093Z,5.07
2018-11-02T06:51:14.503Z,4.20
2018-11-02T06:53:46.965Z,4.23
2018-11-02T06:56:19.356Z,4.50
2018-11-02T06:58:52.040Z,3.80
2018-11-02T07:01:24.358Z,3.47
2018-11-02T07:03:56.737Z,3.63
2018-11-02T07:06:29.075Z,3.30
2018-11-02T07:09:01.286Z,5.43
2018-11-02T07:11:33.529Z,4.83
2018-11-02T07:14:06.163Z,4.20
2018-11-02T07:16:38.742Z,4.07
2018-11-02T07:19:11.094Z,4.97
2018-11-02T07:21:43.538Z,5.93
2018-11-02T07:24:15.831Z,6.80
2018-11-02T07:26:48.068Z,6.10
2018-11-02T07:29:20.315Z,5.50
2018-11-02T07:31:52.718Z,5.60
2018-11-02T07:34:25.067Z,4.97
2018-11-02T07:36:57.233Z,5.67
2018-11-02T07:39:32.056Z,5.57
2018-11-02T07:42:04.425Z,6.60
2018-11-02T07:44:36.914Z,6.07
2018-11-02T07:47:09.180Z,6.30
2018-11-02T07:49:41.641Z,6.87
2018-11-02T07:52:13.915Z,6.13
2018-11-02T07:54:46.173Z,6.70
2018-11-02T07:57:18.542Z,6.70
2018-11-02T07:59:50.974Z,7.00
2018-11-02T08:02:23.281Z,6.30
2018-11-02T08:04:55.645Z,6.17
2018-11-02T08:07:27.978Z,6.20
2018-11-02T08:10:00.283Z,6.07
2018-11-02T08:12:32.676Z,7.17
2018-11-02T08:15:06.935Z,7.10
2018-11-02T08:17:40.081Z,7.10
2018-11-02T08:20:13.176Z,6.30
2018-11-02T08:22:45.422Z,6.63
2018-11-02T08:25:17.697Z,6.87
2018-11-02T08:27:50.074Z,6.50
2018-11-02T08:30:22.506Z,6.50
2018-11-02T08:32:54.810Z,7.40
2018-11-02T08:35:27.150Z,6.90
2018-11-02T08:37:59.390Z,6.47
2018-11-02T08:40:31.698Z,7.57
2018-11-02T08:43:04.282Z,7.67
2018-11-02T08:45:36.575Z,9.57
2018-11-02T08:48:08.946Z,9.40
2018-11-02T08:50:41.369Z,10.13
2018-11-02T08:53:13.682Z,9.77
2018-11-02T08:55:46.197Z,8.43
2018-11-02T08:58:18.746Z,6.90
2018-11-02T09:00:50.829Z,8.40
2018-11-02T09:03:23.281Z,6.90
2018-11-02T09:05:55.661Z,7.83
2018-11-02T09:08:27.993Z,9.77
2018-11-02T09:11:00.360Z,9.80
2018-11-02T09:13:33.114Z,7.27
2018-11-02T09:16:05.731Z,9.47
2018-11-02T09:18:38.146Z,9.50
2018-11-02T09:21:10.818Z,8.97
2018-11-02T09:23:43.589Z,8.63
2018-11-02T09:26:15.892Z,8.03
2018-11-02T09:28:48.234Z,9.47
2018-11-02T09:31:20.653Z,9.40
2018-11-02T09:33:53.042Z,8.67
2018-11-02T09:36:25.604Z,8.37
2018-11-02T09:38:57.915Z,9.33
2018-11-02T09:41:30.378Z,10.23
2018-11-02T09:44:02.892Z,9.37
2018-11-02T09:46:35.845Z,8.07
2018-11-02T09:49:08.291Z,9.07
2018-11-02T09:51:40.845Z,9.27
2018-11-02T09:54:12.989Z,9.27
2018-11-02T09:56:45.381Z,8.27
2018-11-02T09:59:17.806Z,8.73
2018-11-02T10:01:50.171Z,8.93
2018-11-02T10:04:22.808Z,7.93
2018-11-02T10:06:55.680Z,9.40
2018-11-02T10:09:28.146Z,9.30
2018-11-02T10:12:00.539Z,8.40
2018-11-02T10:14:32.875Z,9.47
2018-11-02T10:17:05.518Z,8.67
2018-11-02T10:19:38.074Z,7.57
2018-11-02T10:22:10.493Z,7.37
2018-11-02T10:24:43.107Z,7.20
2018-11-02T10:27:15.753Z,7.00
2018-11-02T10:29:48.228Z,6.37
2018-11-02T10:32:20.690Z,5.40
2018-11-02T10:34:53.146Z,5.73
2018-11-02T10:37:25.683Z,4.70
2018-11-02T10:39:58.178Z,4.83
2018-11-02T10:42:30.621Z,6.20
2018-11-02T10:45:03.605Z,5.27
2018-11-02T10:47:36.183Z,4.20
2018-11-02T10:50:08.673Z,5.53
2018-11-02T10:52:41.189Z,4.63
2018-11-02T10:55:13.559Z,5.00
2018-11-02T10:57:46.317Z,5.73
2018-11-02T11:00:24.120Z,4.23
2018-11-02T11:02:56.611Z,4.57
2018-11-02T11:05:29.140Z,5.13
2018-11-02T11:08:01.606Z,5.27
2018-11-02T11:10:33.956Z,5.20
2018-11-02T11:13:06.750Z,5.53
2018-11-02T11:15:38.815Z,5.00
2018-11-02T11:18:11.229Z,5.40
2018-11-02T11:20:43.718Z,4.10
2018-11-02T11:23:16.311Z,4.70
2018-11-02T11:25:48.867Z,4.33
2018-11-02T11:28:21.375Z,4.13
2018-11-02T11:30:53.697Z,3.57
2018-11-02T11:33:26.275Z,3.33
2018-11-02T11:35:58.622Z,3.67
2018-11-02T11:38:33.035Z,3.97
2018-11-02T11:41:05.475Z,4.50
2018-11-02T11:43:38.060Z,4.17
2018-11-02T11:46:10.634Z,3.43
2018-11-02T11:48:43.310Z,4.45
2018-11-02T11:51:15.568Z,3.35
2018-11-02T11:53:48.322Z,3.27
2018-11-02T11:56:20.750Z,3.33
2018-11-02T11:58:53.164Z,3.35
2018-11-02T12:01:25.638Z,3.40
2018-11-02T12:03:58.067Z,3.55
2018-11-02T12:06:30.458Z,3.52
2018-11-02T12:09:03.821Z,3.77
2018-11-02T12:11:36.205Z,3.40
2018-11-02T12:14:08.580Z,3.30
2018-11-02T12:16:41.015Z,3.10
2018-11-02T12:19:13.820Z,2.95
2018-11-02T12:21:46.172Z,3.08
2018-11-02T12:24:18.534Z,3.60
2018-11-02T12:26:51.034Z,2.85
2018-11-02T12:29:23.478Z,3.50
2018-11-02T12:31:55.860Z,3.20
2018-11-02T12:34:28.343Z,3.40
2018-11-02T12:37:00.781Z,3.87
2018-11-02T12:39:33.171Z,3.25
2018-11-02T12:42:05.550Z,3.22
2018-11-02T12:44:37.898Z,3.25
2018-11-02T12:47:10.282Z,4.28
2018-11-02T12:49:42.947Z,11.88
2018-11-02T12:52:15.030Z,4.12
2018-11-02T12:54:47.446Z,4.78
2018-11-02T12:57:19.861Z,3.20
2018-11-02T12:59:52.338Z,3.50
2018-11-02T13:02:24.685Z,3.10
2018-11-02T13:04:57.123Z,3.00
2018-11-02T13:07:29.579Z,3.27
2018-11-02T13:10:02.279Z,3.75
2018-11-02T13:12:34.595Z,3.25
2018-11-02T13:15:09.126Z,3.17
2018-11-02T13:17:42.584Z,2.90
2018-11-02T13:20:17.470Z,3.00
2018-11-02T13:22:51.902Z,2.90
2018-11-02T13:25:24.293Z,3.20
2018-11-02T13:27:56.679Z,2.90
2018-11-02T13:30:29.311Z,3.05
2018-11-02T13:33:01.575Z,3.08
2018-11-02T13:35:34.019Z,2.85
2018-11-02T13:38:06.492Z,2.60
2018-11-02T13:40:38.861Z,2.80
2018-11-02T13:43:11.559Z,2.50
2018-11-02T13:45:43.804Z,2.12
2018-11-02T13:48:16.189Z,2.27
2018-11-02T13:50:48.579Z,1.95
2018-11-02T13:53:21.105Z,2.37
2018-11-02T13:55:53.469Z,2.00
2018-11-02T13:58:26.121Z,2.00
2018-11-02T14:00:58.751Z,2.35
2018-11-02T14:03:31.101Z,2.07
2018-11-02T14:06:03.670Z,2.23
2018-11-02T14:08:36.116Z,2.43
2018-11-02T14:11:08.489Z,2.93
2018-11-02T14:13:40.858Z,2.77
2018-11-02T14:16:13.385Z,3.08
2018-11-02T14:18:45.826Z,2.70
2018-11-02T14:21:18.193Z,3.20
2018-11-02T14:23:50.767Z,2.77
2018-11-02T14:26:23.148Z,2.70
2018-11-02T14:28:55.493Z,2.33
2018-11-02T14:31:27.862Z,2.50
2018-11-02T14:34:00.297Z,2.50
2018-11-02T14:36:32.659Z,2.60
2018-11-02T14:39:08.288Z,2.42
2018-11-02T14:41:41.534Z,2.20
2018-11-02T14:44:13.938Z,2.75
2018-11-02T14:46:47.188Z,2.80
2018-11-02T14:49:19.610Z,3.40
2018-11-02T14:51:52.111Z,2.52
2018-11-02T14:54:24.637Z,2.90
2018-11-02T14:56:57.034Z,2.67
2018-11-02T14:59:29.449Z,2.50
2018-11-02T15:02:01.883Z,2.20
2018-11-02T15:04:39.063Z,1.90
2018-11-02T15:07:14.756Z,2.27
2018-11-02T15:09:47.963Z,1.80
2018-11-02T15:12:20.389Z,2.20
2018-11-02T15:14:52.746Z,2.27
2018-11-02T15:17:25.141Z,2.40
2018-11-02T15:19:57.531Z,1.93
2018-11-02T15:22:29.942Z,2.27
2018-11-02T15:25:02.347Z,2.75
2018-11-02T15:27:34.742Z,2.53
2018-11-02T15:30:10.107Z,2.60
2018-11-02T15:32:43.986Z,2.80
2018-11-02T15:35:18.468Z,2.90
2018-11-02T15:37:51.860Z,2.80
2018-11-02T15:40:24.979Z,2.50
2018-11-02T15:42:57.752Z,2.70
2018-11-02T15:45:31.018Z,2.80
2018-11-02T15:48:03.403Z,2.83
2018-11-02T15:50:35.889Z,2.57
2018-11-02T15:53:08.449Z,2.53
2018-11-02T15:55:40.908Z,2.80
2018-11-02T15:58:13.909Z,2.70
2018-11-02T16:00:46.934Z,2.80
2018-11-02T16:03:20.420Z,2.37
2018-11-02T16:05:53.825Z,2.90
2018-11-02T16:08:26.743Z,2.90
2018-11-02T16:10:59.220Z,3.40
2018-11-02T16:13:31.687Z,3.60
2018-11-02T16:16:04.338Z,3.50
2018-11-02T16:18:36.891Z,3.33
2018-11-02T16:21:09.248Z,3.80
2018-11-02T16:23:41.628Z,5.93
2018-11-02T16:26:15.134Z,4.87
2018-11-02T16:28:48.151Z,5.53
2018-11-02T16:31:20.820Z,6.00
2018-11-02T16:33:53.393Z,7.70
2018-11-02T16:36:25.885Z,12.30
2018-11-02T16:38:58.361Z,11.60
2018-11-02T16:41:30.740Z,10.70
2018-11-02T16:44:03.263Z,7.77
2018-11-02T16:46:35.746Z,7.90
2018-11-02T16:49:08.331Z,7.23
2018-11-02T16:51:41.059Z,8.13
2018-11-02T16:54:14.464Z,6.53
2018-11-02T16:56:48.286Z,7.20
2018-11-02T16:59:21.351Z,6.83
2018-11-02T17:01:54.623Z,10.17
2018-11-02T17:04:27.176Z,9.57
2018-11-02T17:06:59.606Z,8.63
2018-11-02T17:09:31.964Z,9.03
2018-11-02T17:12:04.569Z,10.07
2018-11-02T17:14:37.122Z,9.17
2018-11-02T17:17:09.729Z,7.50
2018-11-02T17:19:42.292Z,5.50
2018-11-02T17:22:15.778Z,5.00
2018-11-02T17:24:48.467Z,4.77
2018-11-02T17:27:21.697Z,5.40
2018-11-02T17:29:54.726Z,5.73
2018-11-02T17:32:27.330Z,5.13
2018-11-02T17:34:59.814Z,5.80
2018-11-02T17:37:32.339Z,5.57
2018-11-02T17:40:05.854Z,5.60
2018-11-02T17:42:38.292Z,6.23
2018-11-02T17:45:10.734Z,7.80
2018-11-02T17:47:43.385Z,5.87
2018-11-02T17:50:17.051Z,7.20
2018-11-02T17:52:50.320Z,6.67
2018-11-02T17:55:23.243Z,8.00
2018-11-02T17:57:56.211Z,7.50
2018-11-02T18:00:28.692Z,6.83
2018-11-02T18:03:01.168Z,7.40
2018-11-02T18:05:33.605Z,7.77
2018-11-02T18:08:06.231Z,6.60
2018-11-02T18:10:38.784Z,6.93
2018-11-02T18:13:11.223Z,6.77
2018-11-02T18:15:44.993Z,6.20
2018-11-02T18:18:18.367Z,5.40
2018-11-02T18:20:52.114Z,5.80
2018-11-02T18:23:25.616Z,5.57
2018-11-02T18:25:58.366Z,5.50
2018-11-02T18:28:31.262Z,6.23
2018-11-02T18:31:04.629Z,5.67
2018-11-02T18:33:37.586Z,6.23
2018-11-02T18:36:10.040Z,6.10
2018-11-02T18:38:42.489Z,8.53
2018-11-02T18:41:14.926Z,10.73
2018-11-02T18:43:47.371Z,9.50
2018-11-02T18:46:19.756Z,11.37
2018-11-02T18:48:52.292Z,10.83
2018-11-02T18:51:26.641Z,10.10
2018-11-02T18:53:59.499Z,7.60
2018-11-02T18:56:32.891Z,8.03
2018-11-02T18:59:06.420Z,7.00
2018-11-02T19:01:38.998Z,8.27
2018-11-02T19:04:11.574Z,7.30
2018-11-02T19:06:44.178Z,8.20
2018-11-02T19:09:16.700Z,8.30
2018-11-02T19:11:49.131Z,7.13
2018-11-02T19:14:21.502Z,10.43
2018-11-02T19:16:56.299Z,9.63
2018-11-02T19:19:29.633Z,10.17
2018-11-02T19:22:02.790Z,12.67
2018-11-02T19:24:35.269Z,9.63
2018-11-02T19:27:07.803Z,8.27
2018-11-02T19:29:40.195Z,8.03
2018-11-02T19:32:12.845Z,7.70
2018-11-02T19:34:47.143Z,7.37
2018-11-02T19:37:19.892Z,6.87
2018-11-02T19:39:53.464Z,6.30
2018-11-02T19:42:26.290Z,6.80
2018-11-02T19:44:58.936Z,6.87
2018-11-02T19:47:37.227Z,6.73
2018-11-02T19:50:11.987Z,7.40
2018-11-02T19:52:45.411Z,7.13
2018-11-02T19:55:18.709Z,8.70
2018-11-02T19:57:51.789Z,8.50
2018-11-02T20:00:24.847Z,6.80
2018-11-02T20:02:57.389Z,13.63
2018-11-02T20:05:30.084Z,11.60
2018-11-02T20:08:02.696Z,20.80
2018-11-02T20:10:35.160Z,19.17
2018-11-02T20:13:08.087Z,13.43
2018-11-02T20:15:40.804Z,11.40
2018-11-02T20:18:13.447Z,9.00
2018-11-02T20:20:47.419Z,9.37
2018-11-02T20:23:20.362Z,10.30
2018-11-02T20:25:52.880Z,10.77
2018-11-02T20:28:26.238Z,12.43
2018-11-02T20:30:59.800Z,11.50
2018-11-02T20:33:33.007Z,13.37
2018-11-02T20:36:05.973Z,14.37
2018-11-02T20:38:38.502Z,12.77
2018-11-02T20:41:11.132Z,10.33
2018-11-02T20:43:43.590Z,12.60
2018-11-02T20:46:16.050Z,12.20
2018-11-02T20:48:48.567Z,17.33
2018-11-02T20:51:21.089Z,15.47
2018-11-02T20:53:53.518Z,13.83
2018-11-02T20:56:28.348Z,12.67
2018-11-02T20:59:01.360Z,12.73
2018-11-02T21:01:34.484Z,12.57
2018-11-02T21:04:07.256Z,10.37
2018-11-02T21:06:39.881Z,8.70
2018-11-02T21:09:13.194Z,11.57
2018-11-02T21:11:45.469Z,10.40
2018-11-02T21:14:17.948Z,12.07
2018-11-02T21:16:50.446Z,13.47
2018-11-02T21:19:22.837Z,13.47
2018-11-02T21:21:56.257Z,11.73
2018-11-02T21:24:28.646Z,14.63
2018-11-02T21:27:01.242Z,11.13
2018-11-02T21:29:33.633Z,13.00
2018-11-02T21:32:06.039Z,12.90
2018-11-02T21:34:38.490Z,12.47
2018-11-02T21:37:10.946Z,16.83
2018-11-02T21:39:43.486Z,15.50
2018-11-02T21:42:17.941Z,15.27
2018-11-02T21:44:52.866Z,13.90
2018-11-02T21:47:25.819Z,14.70
2018-11-02T21:49:58.359Z,14.13
2018-11-02T21:52:30.842Z,13.37
2018-11-02T21:55:03.486Z,12.63
2018-11-02T21:57:36.068Z,11.30
2018-11-02T22:00:18.800Z,12.47
2018-11-02T22:02:51.156Z,14.03
2018-11-02T22:05:23.534Z,8.03
2018-11-02T22:07:56.025Z,12.53
2018-11-02T22:10:28.542Z,13.90
2018-11-02T22:13:01.114Z,12.73
2018-11-02T22:15:33.699Z,12.77
2018-11-02T22:18:06.154Z,11.20
2018-11-02T22:20:38.703Z,9.53
2018-11-02T22:23:11.314Z,10.73
2018-11-02T22:25:43.870Z,12.00
2018-11-02T22:28:16.273Z,13.53
2018-11-02T22:30:48.700Z,11.67
2018-11-02T22:33:20.999Z,9.53
2018-11-02T22:35:55.966Z,8.77
2018-11-02T22:38:28.362Z,7.47
2018-11-02T22:41:00.821Z,8.27
2018-11-02T22:43:33.322Z,7.60
2018-11-02T22:46:06.645Z,7.30
2018-11-02T22:48:38.994Z,7.60
2018-11-02T22:51:11.350Z,6.93
2018-11-02T22:53:43.858Z,7.63
2018-11-02T22:56:16.258Z,6.97
2018-11-02T22:58:48.647Z,7.90
2018-11-02T23:01:26.130Z,8.27
2018-11-02T23:03:59.890Z,8.00
2018-11-02T23:06:32.337Z,7.77
2018-11-02T23:09:07.539Z,7.63
2018-11-02T23:11:40.074Z,8.10
2018-11-02T23:14:12.770Z,8.83
2018-11-02T23:16:45.234Z,13.47
2018-11-02T23:19:17.662Z,14.47
2018-11-02T23:21:50.029Z,12.93
2018-11-02T23:24:22.642Z,10.77
2018-11-02T23:26:55.039Z,8.87
2018-11-02T23:29:27.537Z,9.43
2018-11-02T23:32:00.069Z,12.80
2018-11-02T23:34:32.804Z,11.03
2018-11-02T23:37:05.197Z,9.17
2018-11-02T23:39:37.681Z,8.60
2018-11-02T23:42:10.131Z,9.90
2018-11-02T23:44:42.560Z,8.60
2018-11-02T23:47:14.858Z,9.50
2018-11-02T23:49:47.254Z,9.40
2018-11-02T23:52:19.950Z,9.03
2018-11-02T23:54:52.822Z,9.03
2018-11-02T23:57:25.715Z,9.17
2018-11-02T23:59:59.482Z,8.90
